createdAt,value
2022-10-01T00:01:06.550Z,95522.06
2022-10-01T00:03:36.400Z,95509.38
2022-10-01T00:06:16.547Z,95527.88
2022-10-01T00:08:48.938Z,95534.16
2022-10-01T00:11:24.499Z,95540.09
2022-10-01T00:13:52.574Z,95544.72
2022-10-01T00:16:22.084Z,95538.19
2022-10-01T00:18:49.221Z,95534.78
2022-10-01T00:21:18.755Z,95535.91
2022-10-01T00:23:46.076Z,95539.19
2022-10-01T00:26:18.688Z,95528.56
2022-10-01T00:28:47.601Z,95528.84
2022-10-01T00:31:15.876Z,95529.28
2022-10-01T00:33:42.760Z,95523.19
2022-10-01T00:36:10.649Z,95525.22
2022-10-01T00:38:38.417Z,95519.78
2022-10-01T00:41:05.257Z,95514.66
2022-10-01T00:43:35.018Z,95511.47
2022-10-01T00:46:14.091Z,95508.13
2022-10-01T00:49:00.100Z,95516.25
2022-10-01T00:51:30.625Z,95511.38
2022-10-01T00:54:04.278Z,95506.78
2022-10-01T00:56:31.478Z,95512.69
2022-10-01T00:58:58.930Z,95511.59
2022-10-01T01:01:26.636Z,95516.25
2022-10-01T01:03:53.265Z,95506.75
2022-10-01T01:06:20.047Z,95506.75
2022-10-01T01:08:53.452Z,95503.34
2022-10-01T01:11:29.298Z,95508.31
2022-10-01T01:14:22.766Z,95508.75
2022-10-01T01:16:58.643Z,95517.97
2022-10-01T01:19:50.488Z,95522.66
2022-10-01T01:22:19.790Z,95520.06
2022-10-01T01:24:50.003Z,95519.38
2022-10-01T01:27:37.679Z,95522.19
2022-10-01T01:30:06.811Z,95518.03
2022-10-01T01:32:54.111Z,95514.63
2022-10-01T01:35:37.122Z,95507.50
2022-10-01T01:38:09.267Z,95517.91
2022-10-01T01:40:38.642Z,95513.00
2022-10-01T01:43:10.892Z,95507.34
2022-10-01T01:45:40.310Z,95494.97
2022-10-01T01:48:09.860Z,95485.03
2022-10-01T01:50:43.257Z,95473.72
2022-10-01T01:53:11.333Z,95468.84
2022-10-01T01:55:38.890Z,95471.56
2022-10-01T01:58:05.475Z,95464.81
2022-10-01T02:00:32.099Z,95452.41
2022-10-01T02:02:59.186Z,95454.75
2022-10-01T02:05:29.462Z,95446.22
2022-10-01T02:08:16.228Z,95446.84
2022-10-01T02:11:04.958Z,95444.28
2022-10-01T02:13:52.508Z,95441.38
2022-10-01T02:16:33.275Z,95444.22
2022-10-01T02:19:10.310Z,95442.97
2022-10-01T02:21:45.651Z,95440.38
2022-10-01T02:24:29.492Z,95442.88
2022-10-01T02:26:59.641Z,95443.63
2022-10-01T02:29:26.998Z,95443.47
2022-10-01T02:31:56.545Z,95441.19
2022-10-01T02:34:28.041Z,95434.38
2022-10-01T02:36:55.412Z,95436.97
2022-10-01T02:39:25.350Z,95433.91
2022-10-01T02:41:55.579Z,95434.75
2022-10-01T02:44:30.220Z,95433.75
2022-10-01T02:47:03.867Z,95438.75
2022-10-01T02:49:31.541Z,95427.44
2022-10-01T02:52:33.766Z,95431.56
2022-10-01T02:55:18.461Z,95428.50
2022-10-01T02:57:45.833Z,95426.53
2022-10-01T03:00:21.210Z,95421.31
2022-10-01T03:02:49.445Z,95419.75
2022-10-01T03:05:17.730Z,95422.75
2022-10-01T03:07:44.499Z,95418.06
2022-10-01T03:10:12.102Z,95418.69
2022-10-01T03:12:41.133Z,95415.75
2022-10-01T03:15:07.880Z,95426.50
2022-10-01T03:17:36.042Z,95426.00
2022-10-01T03:20:03.257Z,95419.28
2022-10-01T03:22:30.361Z,95428.06
2022-10-01T03:24:56.965Z,95435.22
2022-10-01T03:27:23.565Z,95435.44
2022-10-01T03:29:50.442Z,95437.38
2022-10-01T03:32:17.736Z,95430.16
2022-10-01T03:34:44.862Z,95436.00
2022-10-01T03:37:11.498Z,95426.81
2022-10-01T03:39:38.294Z,95423.59
2022-10-01T03:42:05.939Z,95422.38
2022-10-01T03:44:32.989Z,95422.06
2022-10-01T03:46:59.524Z,95424.56
2022-10-01T03:49:26.054Z,95413.28
2022-10-01T03:51:52.586Z,95407.75
2022-10-01T03:54:20.284Z,95412.88
2022-10-01T03:56:47.144Z,95404.34
2022-10-01T03:59:13.887Z,95394.63
2022-10-01T04:01:40.661Z,95409.53
2022-10-01T04:04:07.260Z,95406.28
2022-10-01T04:06:34.105Z,95398.25
2022-10-01T04:09:00.940Z,95397.03
2022-10-01T04:11:27.881Z,95407.13
2022-10-01T04:13:54.671Z,95398.84
2022-10-01T04:16:21.279Z,95398.56
2022-10-01T04:18:47.899Z,95399.63
2022-10-01T04:21:15.495Z,95395.47
2022-10-01T04:23:42.258Z,95402.22
2022-10-01T04:26:09.349Z,95402.22
2022-10-01T04:28:35.959Z,95393.19
2022-10-01T04:31:21.436Z,95387.22
2022-10-01T04:33:48.219Z,95386.47
2022-10-01T04:36:14.859Z,95386.47
2022-10-01T04:38:41.683Z,95389.97
2022-10-01T04:41:09.194Z,95384.03
2022-10-01T04:43:36.759Z,95382.97
2022-10-01T04:46:03.335Z,95381.38
2022-10-01T04:48:29.895Z,95375.75
2022-10-01T04:50:56.587Z,95381.75
2022-10-01T04:53:23.344Z,95383.22
2022-10-01T04:55:49.885Z,95383.38
2022-10-01T04:58:16.426Z,95373.41
2022-10-01T05:00:43.004Z,95383.88
2022-10-01T05:03:09.857Z,95375.38
2022-10-01T05:05:37.289Z,95375.00
2022-10-01T05:08:03.821Z,95368.22
2022-10-01T05:10:31.373Z,95370.66
2022-10-01T05:13:01.185Z,95366.19
2022-10-01T05:15:28.601Z,95371.03
2022-10-01T05:17:55.371Z,95363.75
2022-10-01T05:20:25.930Z,95366.41
2022-10-01T05:22:53.267Z,95363.69
2022-10-01T05:25:20.253Z,95366.88
2022-10-01T05:27:47.465Z,95372.47
2022-10-01T05:30:23.903Z,95374.53
2022-10-01T05:32:56.291Z,95377.72
2022-10-01T05:35:22.910Z,95369.00
2022-10-01T05:37:53.546Z,95371.34
2022-10-01T05:40:20.691Z,95367.78
2022-10-01T05:42:47.699Z,95370.59
2022-10-01T05:45:14.298Z,95375.28
2022-10-01T05:47:44.697Z,95374.91
2022-10-01T05:50:11.277Z,95375.56
2022-10-01T05:52:38.413Z,95368.50
2022-10-01T05:55:05.238Z,95358.78
2022-10-01T05:57:31.775Z,95352.59
2022-10-01T05:59:58.563Z,95350.16
2022-10-01T06:02:25.294Z,95348.22
2022-10-01T06:04:51.988Z,95343.25
2022-10-01T06:07:18.521Z,95344.03
2022-10-01T06:09:45.209Z,95350.19
2022-10-01T06:12:13.666Z,95343.66
2022-10-01T06:14:42.978Z,95338.72
2022-10-01T06:17:09.549Z,95342.84
2022-10-01T06:19:36.112Z,95340.53
2022-10-01T06:22:02.655Z,95338.16
2022-10-01T06:24:30.169Z,95336.66
2022-10-01T06:26:57.141Z,95331.25
2022-10-01T06:29:23.994Z,95324.34
2022-10-01T06:31:51.418Z,95321.88
2022-10-01T06:34:17.978Z,95317.78
2022-10-01T06:36:44.519Z,95313.56
2022-10-01T06:39:11.070Z,95313.81
2022-10-01T06:41:37.674Z,95309.31
2022-10-01T06:44:04.415Z,95299.56
2022-10-01T06:46:32.399Z,95301.41
2022-10-01T06:48:59.281Z,95293.88
2022-10-01T06:51:58.373Z,95293.16
2022-10-01T06:54:27.277Z,95308.69
2022-10-01T06:56:53.850Z,95293.06
2022-10-01T06:59:20.412Z,95297.91
2022-10-01T07:01:56.368Z,95300.78
2022-10-01T07:04:23.172Z,95306.66
2022-10-01T07:06:49.996Z,95311.31
2022-10-01T07:09:16.724Z,95313.38
2022-10-01T07:11:43.444Z,95312.22
2022-10-01T07:14:10.080Z,95311.19
2022-10-01T07:16:39.479Z,95305.28
2022-10-01T07:19:06.134Z,95300.78
2022-10-01T07:21:32.976Z,95313.41
2022-10-01T07:23:59.791Z,95313.53
2022-10-01T07:26:26.399Z,95324.50
2022-10-01T07:28:53.051Z,95327.47
2022-10-01T07:31:19.643Z,95323.41
2022-10-01T07:33:46.458Z,95327.66
2022-10-01T07:36:13.663Z,95318.34
2022-10-01T07:38:43.443Z,95307.78
2022-10-01T07:41:10.352Z,95311.50
2022-10-01T07:43:37.243Z,95302.41
2022-10-01T07:46:05.518Z,95304.72
2022-10-01T07:48:32.134Z,95294.69
2022-10-01T07:50:58.687Z,95307.06
2022-10-01T07:53:25.707Z,95313.50
2022-10-01T07:55:52.263Z,95317.59
2022-10-01T07:58:18.970Z,95322.16
2022-10-01T08:00:45.657Z,95317.25
2022-10-01T08:03:12.355Z,95320.44
2022-10-01T08:05:41.380Z,95318.09
2022-10-01T08:08:08.885Z,95311.81
2022-10-01T08:10:37.461Z,95317.31
2022-10-01T08:13:08.633Z,95310.91
2022-10-01T08:15:35.838Z,95309.72
2022-10-01T08:18:04.038Z,95310.81
2022-10-01T08:20:30.801Z,95310.72
2022-10-01T08:23:11.417Z,95301.72
2022-10-01T08:25:39.532Z,95301.28
2022-10-01T08:28:07.267Z,95309.47
2022-10-01T08:30:36.473Z,95304.53
2022-10-01T08:33:03.966Z,95311.25
2022-10-01T08:35:30.656Z,95313.16
2022-10-01T08:38:04.845Z,95318.53
2022-10-01T08:40:38.296Z,95316.13
2022-10-01T08:43:07.509Z,95306.00
2022-10-01T08:45:38.802Z,95317.72
2022-10-01T08:48:19.254Z,95315.19
2022-10-01T08:51:04.766Z,95315.13
2022-10-01T08:53:38.122Z,95323.47
2022-10-01T08:56:06.895Z,95331.59
2022-10-01T08:58:43.453Z,95329.47
2022-10-01T09:01:11.670Z,95339.97
2022-10-01T09:03:39.292Z,95333.69
2022-10-01T09:06:25.196Z,95333.94
2022-10-01T09:09:15.809Z,95330.06
2022-10-01T09:12:10.509Z,95336.88
2022-10-01T09:14:43.695Z,95335.59
2022-10-01T09:17:35.152Z,95329.78
2022-10-01T09:20:11.792Z,95330.16
2022-10-01T09:22:41.598Z,95330.66
2022-10-01T09:25:23.886Z,95340.78
2022-10-01T09:28:03.164Z,95339.59
2022-10-01T09:30:31.757Z,95322.44
2022-10-01T09:33:24.876Z,95349.38
2022-10-01T09:36:16.230Z,95340.06
2022-10-01T09:38:46.003Z,95342.34
2022-10-01T09:41:14.569Z,95341.91
2022-10-01T09:43:43.848Z,95345.19
2022-10-01T09:46:15.401Z,95352.91
2022-10-01T09:48:59.664Z,95353.91
2022-10-01T09:51:44.995Z,95360.66
2022-10-01T09:54:31.924Z,95366.88
2022-10-01T09:57:05.581Z,95372.78
2022-10-01T09:59:55.814Z,95377.16
2022-10-01T10:02:36.266Z,95383.38
2022-10-01T10:05:07.087Z,95374.53
2022-10-01T10:07:35.144Z,95386.81
2022-10-01T10:10:25.360Z,95380.78
2022-10-01T10:12:58.946Z,95377.81
2022-10-01T10:15:26.361Z,95372.59
2022-10-01T10:17:55.632Z,95381.06
2022-10-01T10:20:25.155Z,95377.38
2022-10-01T10:22:52.125Z,95374.09
2022-10-01T10:25:24.233Z,95385.06
2022-10-01T10:27:56.487Z,95389.88
2022-10-01T10:30:24.699Z,95392.88
2022-10-01T10:32:52.952Z,95393.84
2022-10-01T10:35:25.617Z,95407.28
2022-10-01T10:37:54.743Z,95409.06
2022-10-01T10:40:29.308Z,95409.97
2022-10-01T10:42:58.519Z,95399.53
2022-10-01T10:45:33.123Z,95419.09
2022-10-01T10:48:01.958Z,95417.84
2022-10-01T10:50:35.992Z,95402.59
2022-10-01T10:53:24.205Z,95409.97
2022-10-01T10:55:56.291Z,95403.97
2022-10-01T10:58:27.119Z,95414.56
2022-10-01T11:00:57.471Z,95419.34
2022-10-01T11:03:28.280Z,95413.91
2022-10-01T11:06:03.257Z,95414.66
2022-10-01T11:08:30.197Z,95407.22
2022-10-01T11:11:49.704Z,95406.03
2022-10-01T11:14:48.587Z,95416.88
2022-10-01T11:17:55.194Z,95404.81
2022-10-01T11:20:50.100Z,95409.13
2022-10-01T11:23:55.075Z,95409.47
2022-10-01T11:26:34.939Z,95404.47
2022-10-01T11:29:19.712Z,95410.97
2022-10-01T11:32:19.362Z,95399.81
2022-10-01T11:35:19.513Z,95389.69
2022-10-01T11:38:06.602Z,95387.25
2022-10-01T11:40:40.973Z,95384.28
2022-10-01T11:43:32.979Z,95394.84
2022-10-01T11:46:08.302Z,95390.34
2022-10-01T11:48:48.396Z,95392.41
2022-10-01T11:51:29.367Z,95389.25
2022-10-01T11:54:01.962Z,95387.56
2022-10-01T11:57:00.452Z,95390.91
2022-10-01T11:59:37.839Z,95397.59
2022-10-01T12:02:25.259Z,95395.34
2022-10-01T12:05:17.044Z,95390.06
2022-10-01T12:07:47.138Z,95394.84
2022-10-01T12:10:38.801Z,95394.34
2022-10-01T12:13:08.455Z,95403.88
2022-10-01T12:15:49.425Z,95405.09
2022-10-01T12:18:23.006Z,95417.94
2022-10-01T12:20:53.628Z,95421.22
2022-10-01T12:23:23.394Z,95413.66
2022-10-01T12:25:57.081Z,95424.22
2022-10-01T12:28:34.488Z,95420.56
2022-10-01T12:31:12.476Z,95421.41
2022-10-01T12:33:51.240Z,95415.03
2022-10-01T12:36:36.629Z,95405.06
2022-10-01T12:39:18.822Z,95407.28
2022-10-01T12:42:22.877Z,95417.91
2022-10-01T12:45:23.146Z,95413.53
2022-10-01T12:47:54.686Z,95426.66
2022-10-01T12:50:26.729Z,95429.06
2022-10-01T12:53:08.290Z,95437.72
2022-10-01T12:55:49.965Z,95432.69
2022-10-01T12:58:56.499Z,95436.19
2022-10-01T13:01:51.325Z,95431.47
2022-10-01T13:04:56.637Z,95425.31
2022-10-01T13:07:26.055Z,95429.56
2022-10-01T13:10:07.853Z,95438.16
2022-10-01T13:12:45.746Z,95436.06
2022-10-01T13:15:20.167Z,95442.81
2022-10-01T13:17:57.961Z,95443.91
2022-10-01T13:20:41.040Z,95435.84
2022-10-01T13:23:21.854Z,95448.97
2022-10-01T13:25:57.815Z,95443.38
2022-10-01T13:28:53.082Z,95446.09
2022-10-01T13:31:19.856Z,95451.53
2022-10-01T13:33:57.409Z,95454.97
2022-10-01T13:36:36.244Z,95458.31
2022-10-01T13:39:03.098Z,95463.00
2022-10-01T13:41:33.316Z,95460.28
2022-10-01T13:44:02.747Z,95458.34
2022-10-01T13:46:32.863Z,95465.63
2022-10-01T13:49:17.154Z,95461.59
2022-10-01T13:51:45.929Z,95467.22
2022-10-01T13:54:28.438Z,95472.47
2022-10-01T13:56:55.189Z,95466.31
2022-10-01T13:59:33.896Z,95469.06
2022-10-01T14:02:00.761Z,95468.75
2022-10-01T14:04:36.107Z,95481.25
2022-10-01T14:07:17.747Z,95485.44
2022-10-01T14:09:52.135Z,95489.09
2022-10-01T14:12:47.180Z,95486.47
2022-10-01T14:15:36.951Z,95486.34
2022-10-01T14:18:08.695Z,95493.63
2022-10-01T14:20:51.092Z,95490.84
2022-10-01T14:23:32.077Z,95494.97
2022-10-01T14:26:20.032Z,95497.44
2022-10-01T14:29:09.580Z,95491.66
2022-10-01T14:31:38.950Z,95498.41
2022-10-01T14:34:20.742Z,95501.34
2022-10-01T14:36:49.411Z,95494.88
2022-10-01T14:39:24.756Z,95503.78
2022-10-01T14:41:53.817Z,95498.41
2022-10-01T14:44:31.583Z,95499.75
2022-10-01T14:46:59.822Z,95507.03
2022-10-01T14:49:27.668Z,95501.03
2022-10-01T14:52:06.295Z,95505.13
2022-10-01T14:54:41.715Z,95504.03
2022-10-01T14:57:18.823Z,95507.50
2022-10-01T14:59:48.406Z,95503.97
2022-10-01T15:02:24.213Z,95498.44
2022-10-01T15:04:55.088Z,95500.72
2022-10-01T15:07:22.815Z,95500.91
2022-10-01T15:09:50.414Z,95503.56
2022-10-01T15:12:22.468Z,95507.88
2022-10-01T15:14:53.581Z,95512.41
2022-10-01T15:17:24.888Z,95511.03
2022-10-01T15:19:54.827Z,95508.66
2022-10-01T15:22:26.156Z,95513.50
2022-10-01T15:24:57.236Z,95508.31
2022-10-01T15:27:24.898Z,95512.84
2022-10-01T15:29:56.248Z,95511.81
2022-10-01T15:32:24.330Z,95514.53
2022-10-01T15:34:58.127Z,95515.78
2022-10-01T15:37:31.572Z,95506.19
2022-10-01T15:40:01.281Z,95512.84
2022-10-01T15:42:33.984Z,95509.66
2022-10-01T15:45:06.611Z,95516.47
2022-10-01T15:47:37.818Z,95523.13
2022-10-01T15:50:10.127Z,95527.16
2022-10-01T15:52:49.601Z,95535.16
2022-10-01T15:55:29.662Z,95529.22
2022-10-01T15:58:04.872Z,95543.91
2022-10-01T16:00:39.449Z,95549.69
2022-10-01T16:03:06.188Z,95542.34
2022-10-01T16:05:38.222Z,95548.69
2022-10-01T16:08:05.429Z,95552.06
2022-10-01T16:10:38.312Z,95554.91
2022-10-01T16:13:39.841Z,95558.47
2022-10-01T16:16:19.432Z,95567.47
2022-10-01T16:19:17.071Z,95570.63
2022-10-01T16:21:43.632Z,95574.72
2022-10-01T16:24:28.408Z,95587.09
2022-10-01T16:27:01.120Z,95577.97
2022-10-01T16:29:28.175Z,95583.38
2022-10-01T16:31:55.806Z,95587.66
2022-10-01T16:34:22.495Z,95585.66
2022-10-01T16:36:50.185Z,95595.72
2022-10-01T16:39:16.806Z,95594.00
2022-10-01T16:41:56.801Z,95596.66
2022-10-01T16:44:28.576Z,95601.53
2022-10-01T16:46:56.239Z,95603.25
2022-10-01T16:49:24.761Z,95607.28
2022-10-01T16:51:52.885Z,95604.81
2022-10-01T16:54:25.302Z,95614.56
2022-10-01T16:56:52.454Z,95612.50
2022-10-01T16:59:22.370Z,95619.09
2022-10-01T17:01:51.353Z,95617.09
2022-10-01T17:04:18.643Z,95624.03
2022-10-01T17:06:45.845Z,95621.88
2022-10-01T17:09:12.545Z,95634.19
2022-10-01T17:11:39.209Z,95634.63
2022-10-01T17:14:08.752Z,95647.78
2022-10-01T17:16:35.746Z,95645.94
2022-10-01T17:19:02.632Z,95648.97
2022-10-01T17:21:29.641Z,95650.38
2022-10-01T17:23:56.218Z,95650.16
2022-10-01T17:26:22.842Z,95651.22
2022-10-01T17:28:49.382Z,95644.34
2022-10-01T17:31:18.073Z,95651.59
2022-10-01T17:33:45.177Z,95657.03
2022-10-01T17:36:12.436Z,95656.19
2022-10-01T17:38:40.338Z,95669.75
2022-10-01T17:41:07.592Z,95675.13
2022-10-01T17:43:34.259Z,95671.84
2022-10-01T17:46:01.409Z,95677.13
2022-10-01T17:48:28.680Z,95680.03
2022-10-01T17:51:06.969Z,95684.50
2022-10-01T17:53:41.114Z,95697.41
2022-10-01T17:56:14.568Z,95697.00
2022-10-01T17:58:44.970Z,95700.38
2022-10-01T18:01:15.735Z,95702.84
2022-10-01T18:03:42.524Z,95712.34
2022-10-01T18:06:11.791Z,95708.50
2022-10-01T18:08:54.127Z,95713.72
2022-10-01T18:11:22.549Z,95713.63
2022-10-01T18:13:50.686Z,95719.53
2022-10-01T18:16:19.221Z,95728.59
2022-10-01T18:21:33.376Z,95726.50
2022-10-01T18:24:04.235Z,95729.78
2022-10-01T18:26:31.397Z,95748.38
2022-10-01T18:28:58.260Z,95750.28
2022-10-01T18:31:35.377Z,95752.50
2022-10-01T18:34:06.093Z,95746.84
2022-10-01T18:36:53.524Z,95741.47
2022-10-01T18:39:32.318Z,95746.84
2022-10-01T18:41:59.408Z,95746.25
2022-10-01T18:44:26.186Z,95744.75
2022-10-01T18:47:03.450Z,95747.78
2022-10-01T18:49:47.607Z,95747.56
2022-10-01T18:52:20.321Z,95757.81
2022-10-01T18:55:00.259Z,95763.34
2022-10-01T18:57:42.435Z,95770.72
2022-10-01T19:00:18.023Z,95783.72
2022-10-01T19:03:02.850Z,95785.03
2022-10-01T19:05:32.441Z,95790.38
2022-10-01T19:08:10.035Z,95784.38
2022-10-01T19:10:45.741Z,95794.31
2022-10-01T19:13:48.580Z,95807.13
2022-10-01T19:16:39.999Z,95809.06
2022-10-01T19:19:12.514Z,95811.75
2022-10-01T19:22:12.151Z,95817.00
2022-10-01T19:24:57.884Z,95822.84
2022-10-01T19:27:32.687Z,95832.28
2022-10-01T19:30:13.093Z,95846.94
2022-10-01T19:32:47.087Z,95844.75
2022-10-01T19:35:24.214Z,95854.31
2022-10-01T19:38:03.653Z,95855.13
2022-10-01T19:40:40.850Z,95865.25
2022-10-01T19:43:11.281Z,95868.22
2022-10-01T19:46:00.412Z,95860.72
2022-10-01T19:48:32.992Z,95873.25
2022-10-01T19:51:07.125Z,95876.56
2022-10-01T19:53:37.347Z,95887.78
2022-10-01T19:56:04.699Z,95896.94
2022-10-01T19:58:32.568Z,95902.53
2022-10-01T20:01:02.723Z,95907.00
2022-10-01T20:03:39.269Z,95906.81
2022-10-01T20:06:28.051Z,95921.13
2022-10-01T20:09:00.025Z,95917.09
2022-10-01T20:11:36.292Z,95929.09
2022-10-01T20:14:46.442Z,95921.66
2022-10-01T20:17:25.103Z,95924.25
2022-10-01T20:20:10.335Z,95924.09
2022-10-01T20:22:51.445Z,95932.41
2022-10-01T20:25:39.752Z,95936.84
2022-10-01T20:28:52.101Z,95943.41
2022-10-01T20:31:29.800Z,95944.13
2022-10-01T20:34:16.995Z,95944.69
2022-10-01T20:36:43.494Z,95944.19
2022-10-01T20:39:27.971Z,95955.63
2022-10-01T20:41:56.186Z,95956.84
2022-10-01T20:44:27.864Z,95959.47
2022-10-01T20:47:11.066Z,95966.00
2022-10-01T20:49:48.574Z,95966.66
2022-10-01T20:52:47.402Z,95969.34
2022-10-01T20:55:18.528Z,95964.38
2022-10-01T20:57:50.623Z,95969.28
2022-10-01T21:00:23.488Z,95967.00
2022-10-01T21:03:08.873Z,95972.38
2022-10-01T21:05:43.101Z,95974.44
2022-10-01T21:08:40.525Z,95962.50
2022-10-01T21:11:26.137Z,95967.00
2022-10-01T21:14:04.523Z,95969.50
2022-10-01T21:16:50.087Z,95969.19
2022-10-01T21:19:47.152Z,95963.78
2022-10-01T21:22:36.129Z,95969.63
2022-10-01T21:25:32.524Z,95985.06
2022-10-01T21:28:19.671Z,95984.75
2022-10-01T21:31:07.257Z,95985.31
2022-10-01T21:33:44.088Z,95993.78
2022-10-01T21:36:34.555Z,95992.31
2022-10-01T21:39:29.395Z,95992.50
2022-10-01T21:42:05.425Z,96005.56
2022-10-01T21:45:00.488Z,95996.28
2022-10-01T21:47:29.887Z,96003.97
2022-10-01T21:50:22.382Z,96001.97
2022-10-01T21:53:19.889Z,96006.69
2022-10-01T21:55:52.462Z,96005.97
2022-10-01T21:58:37.595Z,96005.94
2022-10-01T22:01:31.978Z,96008.41
2022-10-01T22:04:17.663Z,96012.22
2022-10-01T22:06:58.502Z,96014.53
2022-10-01T22:09:44.540Z,96009.88
2022-10-01T22:12:12.084Z,96033.13
2022-10-01T22:14:40.706Z,96027.19
2022-10-01T22:17:21.696Z,96036.97
2022-10-01T22:19:52.291Z,96028.56
2022-10-01T22:22:21.840Z,96034.38
2022-10-01T22:24:51.476Z,96037.72
2022-10-01T22:27:27.207Z,96049.53
2022-10-01T22:30:01.845Z,96051.47
2022-10-01T22:32:33.411Z,96047.84
2022-10-01T22:35:06.906Z,96035.59
2022-10-01T22:37:46.853Z,96036.44
2022-10-01T22:40:27.062Z,96038.28
2022-10-01T22:43:11.942Z,96039.22
2022-10-01T22:45:49.400Z,96049.47
2022-10-01T22:48:45.123Z,96052.47
2022-10-01T22:51:29.829Z,96057.22
2022-10-01T22:54:09.233Z,96063.19
2022-10-01T22:57:14.357Z,96077.78
2022-10-01T22:59:59.578Z,96079.47
2022-10-01T23:02:33.384Z,96079.13
2022-10-01T23:05:31.152Z,96074.22
2022-10-01T23:08:07.768Z,96069.69
2022-10-01T23:10:58.999Z,96069.41
2022-10-01T23:13:44.319Z,96069.56
2022-10-01T23:16:16.796Z,96077.09
2022-10-01T23:19:04.995Z,96088.94
2022-10-01T23:21:40.673Z,96095.56
2022-10-01T23:24:28.381Z,96099.06
2022-10-01T23:27:21.496Z,96102.41
2022-10-01T23:30:16.085Z,96099.00
2022-10-01T23:32:59.278Z,96103.16
2022-10-01T23:35:48.727Z,96111.44
2022-10-01T23:38:43.814Z,96093.50
2022-10-01T23:41:34.493Z,96104.63
2022-10-01T23:44:42.896Z,96103.63
2022-10-01T23:47:20.301Z,96115.94
2022-10-01T23:49:55.763Z,96114.06
2022-10-01T23:52:33.171Z,96128.22
2022-10-01T23:55:30.698Z,96142.28
2022-10-01T23:58:03.189Z,96150.13
